Aviation Digital Data Service (ADDS)

Output produced by METARs form (2234 UTC 23 March 2019)
found at http://www.aviationweather.gov/metar/data/
 
METAR text: KMCI 232153Z 16010KT 10SM BKN060 OVC080 14/08 A3000 RMK AO2 SLP159 T01440078
Conditions at: KMCI (KANSAS CITY/INTL, MO, US) observed 2153 UTC 23 March 2019
Temperature: 14.4°C (58°F)
Dewpoint: 7.8°C (46°F) [RH = 65%]
Pressure (altimeter): 30.00 inches Hg (1016.0 mb)
[Sea-level pressure: 1015.9 mb]
Winds: from the SSE (160 degrees) at 12 MPH (10 knots; 5.1 m/s)
Visibility: 10 or more miles (16+ km)
Ceiling: 6000 feet AGL
Clouds: broken clouds at 6000 feet AGL
overcast cloud deck at 8000 feet AGL
Weather: no significant weather observed at this time

METAR text: KMCI 232053Z 16012G20KT 10SM BKN039 OVC050 14/07 A3003 RMK AO2 SLP167 60000 T01390072 56016
Conditions at: KMCI (KANSAS CITY/INTL, MO, US) observed 2053 UTC 23 March 2019
Temperature: 13.9°C (57°F)
Dewpoint: 7.2°C (45°F) [RH = 64%]
Pressure (altimeter): 30.03 inches Hg (1017.0 mb)
[Sea-level pressure: 1016.7 mb]
Winds: from the SSE (160 degrees) at 14 MPH (12 knots; 6.2 m/s)
gusting to 23 MPH (20 knots; 10.3 m/s)
Visibility: 10 or more miles (16+ km)
Ceiling: 3900 feet AGL
Clouds: broken clouds at 3900 feet AGL
overcast cloud deck at 5000 feet AGL
Weather: no significant weather observed at this time

METAR text: KMCI 231953Z 13006KT 10SM OVC055 13/03 A3005 RMK AO2 SLP174 T01330033
Conditions at: KMCI (KANSAS CITY/INTL, MO, US) observed 1953 UTC 23 March 2019
Temperature: 13.3°C (56°F)
Dewpoint: 3.3°C (38°F) [RH = 51%]
Pressure (altimeter): 30.05 inches Hg (1017.7 mb)
[Sea-level pressure: 1017.4 mb]
Winds: from the SE (130 degrees) at 7 MPH (6 knots; 3.1 m/s)
Visibility: 10 or more miles (16+ km)
Ceiling: 5500 feet AGL
Clouds: overcast cloud deck at 5500 feet AGL
Weather: no significant weather observed at this time

METAR text: KMCI 231853Z 09009KT 10SM BKN075 OVC090 12/02 A3005 RMK AO2 RAB1757E08 SLP176 P0000 T01220022
Conditions at: KMCI (KANSAS CITY/INTL, MO, US) observed 1853 UTC 23 March 2019
Temperature: 12.2°C (54°F)
Dewpoint: 2.2°C (36°F) [RH = 50%]
Pressure (altimeter): 30.05 inches Hg (1017.7 mb)
[Sea-level pressure: 1017.6 mb]
Winds: from the E (90 degrees) at 10 MPH (9 knots; 4.6 m/s)
Visibility: 10 or more miles (16+ km)
Ceiling: 7500 feet AGL
Clouds: broken clouds at 7500 feet AGL
overcast cloud deck at 9000 feet AGL
Weather: no significant weather observed at this time

METAR text: KMCI 231753Z 12006KT 10SM FEW050 BKN075 12/02 A3007 RMK AO2 RAB17E36 SLP183 P0000 60000 T01220022 10122 20083 58004
Conditions at: KMCI (KANSAS CITY/INTL, MO, US) observed 1753 UTC 23 March 2019
Temperature: 12.2°C (54°F)
Dewpoint: 2.2°C (36°F) [RH = 50%]
Pressure (altimeter): 30.07 inches Hg (1018.4 mb)
[Sea-level pressure: 1018.3 mb]
Winds: from the ESE (120 degrees) at 7 MPH (6 knots; 3.1 m/s)
Visibility: 10 or more miles (16+ km)
Ceiling: 7500 feet AGL
Clouds: few clouds at 5000 feet AGL
broken clouds at 7500 feet AGL
Weather: no significant weather observed at this time

METAR text: KMCI 231653Z 13009KT 10SM BKN090 OVC110 12/00 A3010 RMK AO2 SLP191 T01170000
Conditions at: KMCI (KANSAS CITY/INTL, MO, US) observed 1653 UTC 23 March 2019
Temperature: 11.7°C (53°F)
Dewpoint: 0.0°C (32°F) [RH = 44%]
Pressure (altimeter): 30.10 inches Hg (1019.4 mb)
[Sea-level pressure: 1019.1 mb]
Winds: from the SE (130 degrees) at 10 MPH (9 knots; 4.6 m/s)
Visibility: 10 or more miles (16+ km)
Ceiling: 9000 feet AGL
Clouds: broken clouds at 9000 feet AGL
overcast cloud deck at 11000 feet AGL
Weather: no significant weather observed at this time

METAR text: KMCI 231553Z 14012KT 10SM OVC100 10/01 A3012 RMK AO2 SLP198 T01000006
Conditions at: KMCI (KANSAS CITY/INTL, MO, US) observed 1553 UTC 23 March 2019
Temperature: 10.0°C (50°F)
Dewpoint: 0.6°C (33°F) [RH = 52%]
Pressure (altimeter): 30.12 inches Hg (1020.1 mb)
[Sea-level pressure: 1019.8 mb]
Winds: from the SE (140 degrees) at 14 MPH (12 knots; 6.2 m/s)
Visibility: 10 or more miles (16+ km)
Ceiling: 10000 feet AGL
Clouds: overcast cloud deck at 10000 feet AGL
Weather: no significant weather observed at this time

METAR text: KMCI 231453Z 12016KT 10SM OVC120 09/M01 A3009 RMK AO2 SLP187 T00941006 58008
Conditions at: KMCI (KANSAS CITY/INTL, MO, US) observed 1453 UTC 23 March 2019
Temperature: 9.4°C (49°F)
Dewpoint: -0.6°C (31°F) [RH = 50%]
Pressure (altimeter): 30.09 inches Hg (1019.0 mb)
[Sea-level pressure: 1018.7 mb]
Winds: from the ESE (120 degrees) at 18 MPH (16 knots; 8.2 m/s)
Visibility: 10 or more miles (16+ km)
Ceiling: 12000 feet AGL
Clouds: overcast cloud deck at 12000 feet AGL
Weather: no significant weather observed at this time

METAR text: KMCI 231353Z 12015KT 10SM FEW090 OVC110 09/M01 A3010 RMK AO2 SLP191 T00891006
Conditions at: KMCI (KANSAS CITY/INTL, MO, US) observed 1353 UTC 23 March 2019
Temperature: 8.9°C (48°F)
Dewpoint: -0.6°C (31°F) [RH = 51%]
Pressure (altimeter): 30.10 inches Hg (1019.4 mb)
[Sea-level pressure: 1019.1 mb]
Winds: from the ESE (120 degrees) at 17 MPH (15 knots; 7.7 m/s)
Visibility: 10 or more miles (16+ km)
Ceiling: 11000 feet AGL
Clouds: few clouds at 9000 feet AGL
overcast cloud deck at 11000 feet AGL
Weather: no significant weather observed at this time

METAR text: KMCI 231253Z 11010KT 10SM BKN110 08/M01 A3011 RMK AO2 SLP195 T00831011
Conditions at: KMCI (KANSAS CITY/INTL, MO, US) observed 1253 UTC 23 March 2019
Temperature: 8.3°C (47°F)
Dewpoint: -1.1°C (30°F) [RH = 51%]
Pressure (altimeter): 30.11 inches Hg (1019.7 mb)
[Sea-level pressure: 1019.5 mb]
Winds: from the ESE (110 degrees) at 12 MPH (10 knots; 5.1 m/s)
Visibility: 10 or more miles (16+ km)
Ceiling: 11000 feet AGL
Clouds: broken clouds at 11000 feet AGL
Weather: no significant weather observed at this time

METAR text: KMCI 231153Z 10012KT 10SM SCT070 BKN095 OVC110 08/M01 A3011 RMK AO2 SLP195 T00831011 10106 20083 56008
Conditions at: KMCI (KANSAS CITY/INTL, MO, US) observed 1153 UTC 23 March 2019
Temperature: 8.3°C (47°F)
Dewpoint: -1.1°C (30°F) [RH = 51%]
Pressure (altimeter): 30.11 inches Hg (1019.7 mb)
[Sea-level pressure: 1019.5 mb]
Winds: from the E (100 degrees) at 14 MPH (12 knots; 6.2 m/s)
Visibility: 10 or more miles (16+ km)
Ceiling: 9500 feet AGL
Clouds: scattered clouds at 7000 feet AGL
broken clouds at 9500 feet AGL
overcast cloud deck at 11000 feet AGL
Weather: no significant weather observed at this time

METAR text: KMCI 231053Z 12012KT 10SM OVC150 09/M01 A3012 RMK AO2 SLP197 T00891011
Conditions at: KMCI (KANSAS CITY/INTL, MO, US) observed 1053 UTC 23 March 2019
Temperature: 8.9°C (48°F)
Dewpoint: -1.1°C (30°F) [RH = 49%]
Pressure (altimeter): 30.12 inches Hg (1020.1 mb)
[Sea-level pressure: 1019.7 mb]
Winds: from the ESE (120 degrees) at 14 MPH (12 knots; 6.2 m/s)
Visibility: 10 or more miles (16+ km)
Ceiling: 15000 feet AGL
Clouds: overcast cloud deck at 15000 feet AGL
Weather: no significant weather observed at this time

METAR text: KMCI 230953Z 11009KT 10SM BKN120 08/M01 A3012 RMK AO2 SLP198 T00831011
Conditions at: KMCI (KANSAS CITY/INTL, MO, US) observed 0953 UTC 23 March 2019
Temperature: 8.3°C (47°F)
Dewpoint: -1.1°C (30°F) [RH = 51%]
Pressure (altimeter): 30.12 inches Hg (1020.1 mb)
[Sea-level pressure: 1019.8 mb]
Winds: from the ESE (110 degrees) at 10 MPH (9 knots; 4.6 m/s)
Visibility: 10 or more miles (16+ km)
Ceiling: 12000 feet AGL
Clouds: broken clouds at 12000 feet AGL
Weather: no significant weather observed at this time

METAR text: KMCI 230853Z 10010KT 10SM OVC150 09/M01 A3014 RMK AO2 SLP202 T00941011 50003
Conditions at: KMCI (KANSAS CITY/INTL, MO, US) observed 0853 UTC 23 March 2019
Temperature: 9.4°C (49°F)
Dewpoint: -1.1°C (30°F) [RH = 48%]
Pressure (altimeter): 30.14 inches Hg (1020.7 mb)
[Sea-level pressure: 1020.2 mb]
Winds: from the E (100 degrees) at 12 MPH (10 knots; 5.1 m/s)
Visibility: 10 or more miles (16+ km)
Ceiling: 15000 feet AGL
Clouds: overcast cloud deck at 15000 feet AGL
Weather: no significant weather observed at this time

METAR text: KMCI 230753Z 10008KT 10SM SCT120 BKN150 10/M02 A3014 RMK AO2 SLP203 T01001017
Conditions at: KMCI (KANSAS CITY/INTL, MO, US) observed 0753 UTC 23 March 2019
Temperature: 10.0°C (50°F)
Dewpoint: -1.7°C (29°F) [RH = 44%]
Pressure (altimeter): 30.14 inches Hg (1020.7 mb)
[Sea-level pressure: 1020.3 mb]
Winds: from the E (100 degrees) at 9 MPH (8 knots; 4.1 m/s)
Visibility: 10 or more miles (16+ km)
Ceiling: 15000 feet AGL
Clouds: scattered clouds at 12000 feet AGL
broken clouds at 15000 feet AGL
Weather: no significant weather observed at this time

METAR text: KMCI 230653Z 11008KT 10SM BKN150 09/M02 A3013 RMK AO2 SLP202 T00941022
Conditions at: KMCI (KANSAS CITY/INTL, MO, US) observed 0653 UTC 23 March 2019
Temperature: 9.4°C (49°F)
Dewpoint: -2.2°C (28°F) [RH = 44%]
Pressure (altimeter): 30.13 inches Hg (1020.4 mb)
[Sea-level pressure: 1020.2 mb]
Winds: from the ESE (110 degrees) at 9 MPH (8 knots; 4.1 m/s)
Visibility: 10 or more miles (16+ km)
Ceiling: 15000 feet AGL
Clouds: broken clouds at 15000 feet AGL
Weather: no significant weather observed at this time

METAR text: KMCI 230553Z 10007KT 10SM BKN150 11/M03 A3013 RMK AO2 SLP199 T01061028 10156 20106 401890028 55002
Conditions at: KMCI (KANSAS CITY/INTL, MO, US) observed 0553 UTC 23 March 2019
Temperature: 10.6°C (51°F)
Dewpoint: -2.8°C (27°F) [RH = 39%]
Pressure (altimeter): 30.13 inches Hg (1020.4 mb)
[Sea-level pressure: 1019.9 mb]
Winds: from the E (100 degrees) at 8 MPH (7 knots; 3.6 m/s)
Visibility: 10 or more miles (16+ km)
Ceiling: 15000 feet AGL
Clouds: broken clouds at 15000 feet AGL
Weather: no significant weather observed at this time

METAR text: KMCI 230453Z 10010KT 10SM OVC150 12/M03 A3012 RMK AO2 SLP198 T01171033
Conditions at: KMCI (KANSAS CITY/INTL, MO, US) observed 0453 UTC 23 March 2019
Temperature: 11.7°C (53°F)
Dewpoint: -3.3°C (26°F) [RH = 35%]
Pressure (altimeter): 30.12 inches Hg (1020.1 mb)
[Sea-level pressure: 1019.8 mb]
Winds: from the E (100 degrees) at 12 MPH (10 knots; 5.1 m/s)
Visibility: 10 or more miles (16+ km)
Ceiling: 15000 feet AGL
Clouds: overcast cloud deck at 15000 feet AGL
Weather: no significant weather observed at this time

METAR text: KMCI 230353Z 10009KT 10SM OVC150 12/M03 A3013 RMK AO2 SLP202 T01221028
Conditions at: KMCI (KANSAS CITY/INTL, MO, US) observed 0353 UTC 23 March 2019
Temperature: 12.2°C (54°F)
Dewpoint: -2.8°C (27°F) [RH = 35%]
Pressure (altimeter): 30.13 inches Hg (1020.4 mb)
[Sea-level pressure: 1020.2 mb]
Winds: from the E (100 degrees) at 10 MPH (9 knots; 4.6 m/s)
Visibility: 10 or more miles (16+ km)
Ceiling: 15000 feet AGL
Clouds: overcast cloud deck at 15000 feet AGL
Weather: no significant weather observed at this time

METAR text: KMCI 230253Z 10006KT 10SM OVC150 13/M01 A3013 RMK AO2 SLP203 T01281006 53006
Conditions at: KMCI (KANSAS CITY/INTL, MO, US) observed 0253 UTC 23 March 2019
Temperature: 12.8°C (55°F)
Dewpoint: -0.6°C (31°F) [RH = 40%]
Pressure (altimeter): 30.13 inches Hg (1020.4 mb)
[Sea-level pressure: 1020.3 mb]
Winds: from the E (100 degrees) at 7 MPH (6 knots; 3.1 m/s)
Visibility: 10 or more miles (16+ km)
Ceiling: 15000 feet AGL
Clouds: overcast cloud deck at 15000 feet AGL
Weather: no significant weather observed at this time

METAR text: KMCI 230153Z 07006KT 10SM OVC150 13/M01 A3011 RMK AO2 SLP197 T01281006
Conditions at: KMCI (KANSAS CITY/INTL, MO, US) observed 0153 UTC 23 March 2019
Temperature: 12.8°C (55°F)
Dewpoint: -0.6°C (31°F) [RH = 40%]
Pressure (altimeter): 30.11 inches Hg (1019.7 mb)
[Sea-level pressure: 1019.7 mb]
Winds: from the ENE (70 degrees) at 7 MPH (6 knots; 3.1 m/s)
Visibility: 10 or more miles (16+ km)
Ceiling: 15000 feet AGL
Clouds: overcast cloud deck at 15000 feet AGL
Weather: no significant weather observed at this time

METAR text: KMCI 230053Z 06007KT 10SM OVC150 14/00 A3009 RMK AO2 SLP192 T01390000
Conditions at: KMCI (KANSAS CITY/INTL, MO, US) observed 0053 UTC 23 March 2019
Temperature: 13.9°C (57°F)
Dewpoint: 0.0°C (32°F) [RH = 38%]
Pressure (altimeter): 30.09 inches Hg (1019.0 mb)
[Sea-level pressure: 1019.2 mb]
Winds: from the ENE (60 degrees) at 8 MPH (7 knots; 3.6 m/s)
Visibility: 10 or more miles (16+ km)
Ceiling: 15000 feet AGL
Clouds: overcast cloud deck at 15000 feet AGL
Weather: no significant weather observed at this time

METAR text: KMCI 222353Z 05005KT 10SM BKN200 16/01 A3011 RMK AO2 SLP198 T01560006 10189 20156 58005
Conditions at: KMCI (KANSAS CITY/INTL, MO, US) observed 2353 UTC 22 March 2019
Temperature: 15.6°C (60°F)
Dewpoint: 0.6°C (33°F) [RH = 36%]
Pressure (altimeter): 30.11 inches Hg (1019.7 mb)
[Sea-level pressure: 1019.8 mb]
Winds: from the NE (50 degrees) at 6 MPH (5 knots; 2.6 m/s)
Visibility: 10 or more miles (16+ km)
Ceiling: 20000 feet AGL
Clouds: broken clouds at 20000 feet AGL
Weather: no significant weather observed at this time

METAR text: KMCI 222253Z 05007KT 10SM BKN200 18/01 A3011 RMK AO2 SLP196 T01780011
Conditions at: KMCI (KANSAS CITY/INTL, MO, US) observed 2253 UTC 22 March 2019
Temperature: 17.8°C (64°F)
Dewpoint: 1.1°C (34°F) [RH = 32%]
Pressure (altimeter): 30.11 inches Hg (1019.7 mb)
[Sea-level pressure: 1019.6 mb]
Winds: from the NE (50 degrees) at 8 MPH (7 knots; 3.6 m/s)
Visibility: 10 or more miles (16+ km)
Ceiling: 20000 feet AGL
Clouds: broken clouds at 20000 feet AGL
Weather: no significant weather observed at this time

METAR text: KMCI 222153Z 12004KT 10SM BKN200 18/01 A3013 RMK AO2 SLP202 T01780006
Conditions at: KMCI (KANSAS CITY/INTL, MO, US) observed 2153 UTC 22 March 2019
Temperature: 17.8°C (64°F)
Dewpoint: 0.6°C (33°F) [RH = 31%]
Pressure (altimeter): 30.13 inches Hg (1020.4 mb)
[Sea-level pressure: 1020.2 mb]
Winds: from the ESE (120 degrees) at 5 MPH (4 knots; 2.1 m/s)
Visibility: 10 or more miles (16+ km)
Ceiling: 20000 feet AGL
Clouds: broken clouds at 20000 feet AGL
Weather: no significant weather observed at this time

METAR text: KMCI 222053Z 03003KT 10SM BKN200 18/01 A3013 RMK AO2 SLP201 T01830011 58023
Conditions at: KMCI (KANSAS CITY/INTL, MO, US) observed 2053 UTC 22 March 2019
Temperature: 18.3°C (65°F)
Dewpoint: 1.1°C (34°F) [RH = 31%]
Pressure (altimeter): 30.13 inches Hg (1020.4 mb)
[Sea-level pressure: 1020.1 mb]
Winds: from the NNE (30 degrees) at 3 MPH (3 knots; 1.5 m/s)
Visibility: 10 or more miles (16+ km)
Ceiling: 20000 feet AGL
Clouds: broken clouds at 20000 feet AGL
Weather: no significant weather observed at this time

METAR text: KMCI 221953Z 05006KT 10SM BKN250 18/01 A3016 RMK AO2 SLP212 T01780006
Conditions at: KMCI (KANSAS CITY/INTL, MO, US) observed 1953 UTC 22 March 2019
Temperature: 17.8°C (64°F)
Dewpoint: 0.6°C (33°F) [RH = 31%]
Pressure (altimeter): 30.16 inches Hg (1021.4 mb)
[Sea-level pressure: 1021.2 mb]
Winds: from the NE (50 degrees) at 7 MPH (6 knots; 3.1 m/s)
Visibility: 10 or more miles (16+ km)
Ceiling: 25000 feet AGL
Clouds: broken clouds at 25000 feet AGL
Weather: no significant weather observed at this time

METAR text: KMCI 221853Z VRB03KT 10SM BKN250 17/01 A3019 RMK AO2 SLP220 T01720011
Conditions at: KMCI (KANSAS CITY/INTL, MO, US) observed 1853 UTC 22 March 2019
Temperature: 17.2°C (63°F)
Dewpoint: 1.1°C (34°F) [RH = 34%]
Pressure (altimeter): 30.19 inches Hg (1022.4 mb)
[Sea-level pressure: 1022.0 mb]
Winds: variable direction winds at 3 MPH (3 knots; 1.5 m/s)
Visibility: 10 or more miles (16+ km)
Ceiling: 25000 feet AGL
Clouds: broken clouds at 25000 feet AGL
Weather: no significant weather observed at this time

METAR text: KMCI 221753Z 11004KT 10SM BKN250 16/01 A3020 RMK AO2 SLP226 T01610006 10161 20028 58001
Conditions at: KMCI (KANSAS CITY/INTL, MO, US) observed 1753 UTC 22 March 2019
Temperature: 16.1°C (61°F)
Dewpoint: 0.6°C (33°F) [RH = 35%]
Pressure (altimeter): 30.20 inches Hg (1022.8 mb)
[Sea-level pressure: 1022.6 mb]
Winds: from the ESE (110 degrees) at 5 MPH (4 knots; 2.1 m/s)
Visibility: 10 or more miles (16+ km)
Ceiling: 25000 feet AGL
Clouds: broken clouds at 25000 feet AGL
Weather: no significant weather observed at this time

METAR text: KMCI 221653Z 00000KT 10SM SCT250 14/02 A3021 RMK AO2 SLP231 T01440022
Conditions at: KMCI (KANSAS CITY/INTL, MO, US) observed 1653 UTC 22 March 2019
Temperature: 14.4°C (58°F)
Dewpoint: 2.2°C (36°F) [RH = 44%]
Pressure (altimeter): 30.21 inches Hg (1023.1 mb)
[Sea-level pressure: 1023.1 mb]
Winds: calm
Visibility: 10 or more miles (16+ km)
Ceiling: at least 12,000 feet AGL
Clouds: scattered clouds at 25000 feet AGL
Weather: no significant weather observed at this time

METAR text: KMCI 221553Z VRB03KT 10SM SCT250 12/03 A3021 RMK AO2 SLP230 T01220028
Conditions at: KMCI (KANSAS CITY/INTL, MO, US) observed 1553 UTC 22 March 2019
Temperature: 12.2°C (54°F)
Dewpoint: 2.8°C (37°F) [RH = 53%]
Pressure (altimeter): 30.21 inches Hg (1023.1 mb)
[Sea-level pressure: 1023.0 mb]
Winds: variable direction winds at 3 MPH (3 knots; 1.5 m/s)
Visibility: 10 or more miles (16+ km)
Ceiling: at least 12,000 feet AGL
Clouds: scattered clouds at 25000 feet AGL
Weather: no significant weather observed at this time

METAR text: KMCI 221453Z 04007KT 10SM SCT250 11/02 A3020 RMK AO2 SLP226 T01060022 51009
Conditions at: KMCI (KANSAS CITY/INTL, MO, US) observed 1453 UTC 22 March 2019
Temperature: 10.6°C (51°F)
Dewpoint: 2.2°C (36°F) [RH = 56%]
Pressure (altimeter): 30.20 inches Hg (1022.8 mb)
[Sea-level pressure: 1022.6 mb]
Winds: from the NE (40 degrees) at 8 MPH (7 knots; 3.6 m/s)
Visibility: 10 or more miles (16+ km)
Ceiling: at least 12,000 feet AGL
Clouds: scattered clouds at 25000 feet AGL
Weather: no significant weather observed at this time

METAR text: KMCI 221353Z 01004KT 10SM SCT250 07/01 A3020 RMK AO2 SLP228 T00720011
Conditions at: KMCI (KANSAS CITY/INTL, MO, US) observed 1353 UTC 22 March 2019
Temperature: 7.2°C (45°F)
Dewpoint: 1.1°C (34°F) [RH = 65%]
Pressure (altimeter): 30.20 inches Hg (1022.8 mb)
[Sea-level pressure: 1022.8 mb]
Winds: from the N (10 degrees) at 5 MPH (4 knots; 2.1 m/s)
Visibility: 10 or more miles (16+ km)
Ceiling: at least 12,000 feet AGL
Clouds: scattered clouds at 25000 feet AGL
Weather: no significant weather observed at this time

METAR text: KMCI 221253Z 29007KT 10SM CLR 04/M01 A3019 RMK AO2 SLP225 T00391006
Conditions at: KMCI (KANSAS CITY/INTL, MO, US) observed 1253 UTC 22 March 2019
Temperature: 3.9°C (39°F)
Dewpoint: -0.6°C (31°F) [RH = 72%]
Pressure (altimeter): 30.19 inches Hg (1022.4 mb)
[Sea-level pressure: 1022.5 mb]
Winds: from the WNW (290 degrees) at 8 MPH (7 knots; 3.6 m/s)
Visibility: 10 or more miles (16+ km)
Ceiling: at least 12,000 feet AGL
Clouds: sky clear below 12,000 feet AGL
Weather: no significant weather observed at this time

METAR text: KMCI 221153Z 30007KT 10SM CLR 04/M01 A3017 RMK AO2 SLP219 T00391011 10078 20033 53002
Conditions at: KMCI (KANSAS CITY/INTL, MO, US) observed 1153 UTC 22 March 2019
Temperature: 3.9°C (39°F)
Dewpoint: -1.1°C (30°F) [RH = 70%]
Pressure (altimeter): 30.17 inches Hg (1021.8 mb)
[Sea-level pressure: 1021.9 mb]
Winds: from the WNW (300 degrees) at 8 MPH (7 knots; 3.6 m/s)
Visibility: 10 or more miles (16+ km)
Ceiling: at least 12,000 feet AGL
Clouds: sky clear below 12,000 feet AGL
Weather: no significant weather observed at this time

METAR text: KMCI 221053Z 29006KT 10SM CLR 04/M01 A3017 RMK AO2 SLP217 T00441011
Conditions at: KMCI (KANSAS CITY/INTL, MO, US) observed 1053 UTC 22 March 2019
Temperature: 4.4°C (40°F)
Dewpoint: -1.1°C (30°F) [RH = 67%]
Pressure (altimeter): 30.17 inches Hg (1021.8 mb)
[Sea-level pressure: 1021.7 mb]
Winds: from the WNW (290 degrees) at 7 MPH (6 knots; 3.1 m/s)
Visibility: 10 or more miles (16+ km)
Ceiling: at least 12,000 feet AGL
Clouds: sky clear below 12,000 feet AGL
Weather: no significant weather observed at this time

Forecast for: KMCI (KANSAS CITY/INTL, MO, US)
Text: KMCI 231728Z 2318/2418 14011KT P6SM VCSH OVC070
Forecast period: 1800 to 2200 UTC 23 March 2019
Forecast type: FROM: standard forecast or significant change
Winds: from the SE (140 degrees) at 13 MPH (11 knots; 5.7 m/s)
Visibility: 6 or more miles 10+ km)
Ceiling: 7000 feet AGL
Clouds: overcast cloud deck at 7000 feet AGL
Weather: VCSH  (showers in vicinity)
Text: FM232200 14013KT 6SM -SHRA BR VCTS OVC045CB
Forecast period: 2200 UTC 23 March 2019 to 0200 UTC 24 March 2019
Forecast type: FROM: standard forecast or significant change
Winds: from the SE (140 degrees) at 15 MPH (13 knots; 6.7 m/s)
Visibility: 6 miles (10 km)
Ceiling: 4500 feet AGL
Clouds: overcast cloud deck at 4500 feet AGL
Weather: -SHRA BR VCTS  (light rain showers, mist, thunderstorm in vicinity)
Text: FM240200 15013KT 6SM -SHRA BR OVC028
Forecast period: 0200 to 0800 UTC 24 March 2019
Forecast type: FROM: standard forecast or significant change
Winds: from the SSE (150 degrees) at 15 MPH (13 knots; 6.7 m/s)
Visibility: 6 miles (10 km)
Ceiling: 2800 feet AGL
Clouds: overcast cloud deck at 2800 feet AGL
Weather: -SHRA BR  (light rain showers, mist)
Text: FM240800 18011KT 6SM -SHRA BR OVC012
Forecast period: 0800 to 1400 UTC 24 March 2019
Forecast type: FROM: standard forecast or significant change
Winds: from the S (180 degrees) at 13 MPH (11 knots; 5.7 m/s)
Visibility: 6 miles (10 km)
Ceiling: 1200 feet AGL
Clouds: overcast cloud deck at 1200 feet AGL
Weather: -SHRA BR  (light rain showers, mist)
Text: FM241400 24005KT P6SM OVC012
Forecast period: 1400 to 1800 UTC 24 March 2019
Forecast type: FROM: standard forecast or significant change
Winds: from the WSW (240 degrees) at 6 MPH (5 knots; 2.6 m/s)
Visibility: 6 or more miles 10+ km)
Ceiling: 1200 feet AGL
Clouds: overcast cloud deck at 1200 feet AGL
Weather: no significant weather forecast for this period